sensor_id;sensor_type;location;lat;lon;timestamp;temperature;humidity
51011;DHT22;37038;50.182;8.624;2024-01-06T00:01:36;3.70;99.90
51011;DHT22;37038;50.182;8.624;2024-01-06T00:04:27;3.60;99.90
51011;DHT22;37038;50.182;8.624;2024-01-06T00:07:16;3.60;99.90
51011;DHT22;37038;50.182;8.624;2024-01-06T00:10:05;3.60;99.90
51011;DHT22;37038;50.182;8.624;2024-01-06T00:12:57;3.50;99.90
51011;DHT22;37038;50.182;8.624;2024-01-06T00:15:45;3.50;99.90
51011;DHT22;37038;50.182;8.624;2024-01-06T00:18:33;3.50;99.90
51011;DHT22;37038;50.182;8.624;2024-01-06T00:21:22;3.60;99.90
51011;DHT22;37038;50.182;8.624;2024-01-06T00:24:10;3.60;99.90
51011;DHT22;37038;50.182;8.624;2024-01-06T00:26:58;3.60;99.90
51011;DHT22;37038;50.182;8.624;2024-01-06T00:29:47;3.60;99.90
51011;DHT22;37038;50.182;8.624;2024-01-06T00:32:35;3.60;99.90
51011;DHT22;37038;50.182;8.624;2024-01-06T00:35:24;3.70;99.90
51011;DHT22;37038;50.182;8.624;2024-01-06T00:38:13;3.70;99.90
51011;DHT22;37038;50.182;8.624;2024-01-06T00:41:01;3.70;99.90
51011;DHT22;37038;50.182;8.624;2024-01-06T00:43:50;3.80;99.90
51011;DHT22;37038;50.182;8.624;2024-01-06T00:46:39;3.90;99.90
51011;DHT22;37038;50.182;8.624;2024-01-06T00:49:27;3.90;99.90
51011;DHT22;37038;50.182;8.624;2024-01-06T00:52:16;4.10;99.90
51011;DHT22;37038;50.182;8.624;2024-01-06T00:55:04;4.30;99.90
51011;DHT22;37038;50.182;8.624;2024-01-06T00:57:53;4.30;78.50
51011;DHT22;37038;50.182;8.624;2024-01-06T01:00:41;4.20;92.10
51011;DHT22;37038;50.182;8.624;2024-01-06T01:03:30;4.40;62.80
51011;DHT22;37038;50.182;8.624;2024-01-06T01:06:18;4.30;50.10
51011;DHT22;37038;50.182;8.624;2024-01-06T01:09:07;4.20;90.70
51011;DHT22;37038;50.182;8.624;2024-01-06T01:11:56;4.10;95.60
51011;DHT22;37038;50.182;8.624;2024-01-06T01:14:45;4.00;99.90
51011;DHT22;37038;50.182;8.624;2024-01-06T01:17:33;4.10;99.90
51011;DHT22;37038;50.182;8.624;2024-01-06T01:20:25;4.10;99.90
51011;DHT22;37038;50.182;8.624;2024-01-06T01:23:14;4.20;99.90
51011;DHT22;37038;50.182;8.624;2024-01-06T01:26:02;4.20;99.90
51011;DHT22;37038;50.182;8.624;2024-01-06T01:28:51;4.10;99.90
51011;DHT22;37038;50.182;8.624;2024-01-06T01:31:39;4.20;99.90
51011;DHT22;37038;50.182;8.624;2024-01-06T01:34:28;4.20;99.90
51011;DHT22;37038;50.182;8.624;2024-01-06T01:37:17;4.20;99.90
51011;DHT22;37038;50.182;8.624;2024-01-06T01:40:05;4.20;99.90
51011;DHT22;37038;50.182;8.624;2024-01-06T01:42:56;4.20;99.90
51011;DHT22;37038;50.182;8.624;2024-01-06T01:45:48;4.20;99.90
51011;DHT22;37038;50.182;8.624;2024-01-06T01:48:41;4.20;99.90
51011;DHT22;37038;50.182;8.624;2024-01-06T01:51:32;4.30;99.90
51011;DHT22;37038;50.182;8.624;2024-01-06T01:54:25;4.30;99.90
51011;DHT22;37038;50.182;8.624;2024-01-06T01:57:16;4.40;96.00
51011;DHT22;37038;50.182;8.624;2024-01-06T02:00:05;4.40;99.90
51011;DHT22;37038;50.182;8.624;2024-01-06T02:02:54;4.40;93.80
51011;DHT22;37038;50.182;8.624;2024-01-06T02:05:43;4.40;99.90
51011;DHT22;37038;50.182;8.624;2024-01-06T02:08:31;4.40;97.90
51011;DHT22;37038;50.182;8.624;2024-01-06T02:11:19;4.40;99.90
51011;DHT22;37038;50.182;8.624;2024-01-06T02:14:08;4.40;99.90
51011;DHT22;37038;50.182;8.624;2024-01-06T02:16:56;4.50;99.90
51011;DHT22;37038;50.182;8.624;2024-01-06T02:19:47;4.50;99.90
51011;DHT22;37038;50.182;8.624;2024-01-06T02:22:36;4.40;99.90
51011;DHT22;37038;50.182;8.624;2024-01-06T02:25:27;4.50;99.90
51011;DHT22;37038;50.182;8.624;2024-01-06T02:28:15;4.50;99.90
51011;DHT22;37038;50.182;8.624;2024-01-06T02:31:04;4.60;93.30
51011;DHT22;37038;50.182;8.624;2024-01-06T02:33:52;4.50;99.90
51011;DHT22;37038;50.182;8.624;2024-01-06T02:36:41;4.60;96.40
51011;DHT22;37038;50.182;8.624;2024-01-06T02:39:32;4.50;96.70
51011;DHT22;37038;50.182;8.624;2024-01-06T02:42:21;4.40;99.90
51011;DHT22;37038;50.182;8.624;2024-01-06T02:45:09;4.50;99.90
51011;DHT22;37038;50.182;8.624;2024-01-06T02:47:57;4.30;99.90
51011;DHT22;37038;50.182;8.624;2024-01-06T02:50:46;4.30;99.90
51011;DHT22;37038;50.182;8.624;2024-01-06T02:53:34;4.20;99.90
51011;DHT22;37038;50.182;8.624;2024-01-06T02:56:23;4.20;99.90
51011;DHT22;37038;50.182;8.624;2024-01-06T02:59:12;4.20;99.90
51011;DHT22;37038;50.182;8.624;2024-01-06T03:02:01;4.20;99.90
51011;DHT22;37038;50.182;8.624;2024-01-06T03:04:49;4.30;99.90
51011;DHT22;37038;50.182;8.624;2024-01-06T03:07:38;4.30;99.90
51011;DHT22;37038;50.182;8.624;2024-01-06T03:10:26;4.30;99.90
51011;DHT22;37038;50.182;8.624;2024-01-06T03:13:14;4.40;99.90
51011;DHT22;37038;50.182;8.624;2024-01-06T03:16:05;4.40;99.90
51011;DHT22;37038;50.182;8.624;2024-01-06T03:18:56;4.50;99.90
51011;DHT22;37038;50.182;8.624;2024-01-06T03:21:45;4.60;62.20
51011;DHT22;37038;50.182;8.624;2024-01-06T03:24:33;4.60;57.20
51011;DHT22;37038;50.182;8.624;2024-01-06T03:27:24;4.60;54.00
51011;DHT22;37038;50.182;8.624;2024-01-06T03:30:15;4.60;84.00
51011;DHT22;37038;50.182;8.624;2024-01-06T03:33:09;4.60;93.90
51011;DHT22;37038;50.182;8.624;2024-01-06T03:35:59;4.50;99.90
51011;DHT22;37038;50.182;8.624;2024-01-06T03:38:52;4.50;99.90
51011;DHT22;37038;50.182;8.624;2024-01-06T03:41:43;4.50;99.90
51011;DHT22;37038;50.182;8.624;2024-01-06T03:44:34;4.50;99.90
51011;DHT22;37038;50.182;8.624;2024-01-06T03:47:22;4.40;99.90
51011;DHT22;37038;50.182;8.624;2024-01-06T03:50:13;4.50;99.90
51011;DHT22;37038;50.182;8.624;2024-01-06T03:53:02;4.60;68.70
51011;DHT22;37038;50.182;8.624;2024-01-06T03:55:50;4.60;99.90
51011;DHT22;37038;50.182;8.624;2024-01-06T03:58:39;4.60;82.90
51011;DHT22;37038;50.182;8.624;2024-01-06T04:01:28;4.70;37.10
51011;DHT22;37038;50.182;8.624;2024-01-06T04:04:19;4.70;33.00
51011;DHT22;37038;50.182;8.624;2024-01-06T04:07:08;4.80;34.40
51011;DHT22;37038;50.182;8.624;2024-01-06T04:10:02;4.80;10.90
51011;DHT22;37038;50.182;8.624;2024-01-06T04:12:50;4.90;5.10
51011;DHT22;37038;50.182;8.624;2024-01-06T04:15:39;4.90;1.00
51011;DHT22;37038;50.182;8.624;2024-01-06T04:18:27;5.10;1.00
51011;DHT22;37038;50.182;8.624;2024-01-06T04:21:16;5.10;1.00
51011;DHT22;37038;50.182;8.624;2024-01-06T04:24:05;5.10;1.00
51011;DHT22;37038;50.182;8.624;2024-01-06T04:26:56;4.90;1.00
51011;DHT22;37038;50.182;8.624;2024-01-06T04:29:45;4.80;25.40
51011;DHT22;37038;50.182;8.624;2024-01-06T04:32:36;4.70;49.30
51011;DHT22;37038;50.182;8.624;2024-01-06T04:35:25;4.80;37.80
51011;DHT22;37038;50.182;8.624;2024-01-06T04:38:15;4.70;41.50
51011;DHT22;37038;50.182;8.624;2024-01-06T04:41:03;4.70;41.70
51011;DHT22;37038;50.182;8.624;2024-01-06T04:43:54;4.70;43.90
51011;DHT22;37038;50.182;8.624;2024-01-06T04:46:44;4.70;45.70
51011;DHT22;37038;50.182;8.624;2024-01-06T04:49:33;4.70;25.10
51011;DHT22;37038;50.182;8.624;2024-01-06T04:52:21;4.70;27.30
51011;DHT22;37038;50.182;8.624;2024-01-06T04:55:09;4.70;7.00
51011;DHT22;37038;50.182;8.624;2024-01-06T04:57:58;4.70;1.00
51011;DHT22;37038;50.182;8.624;2024-01-06T05:00:46;4.80;1.00
51011;DHT22;37038;50.182;8.624;2024-01-06T05:03:35;4.80;1.00
51011;DHT22;37038;50.182;8.624;2024-01-06T05:06:27;4.80;1.00
51011;DHT22;37038;50.182;8.624;2024-01-06T05:09:15;4.90;1.00
51011;DHT22;37038;50.182;8.624;2024-01-06T05:12:05;4.80;1.00
51011;DHT22;37038;50.182;8.624;2024-01-06T05:14:54;4.90;1.00
51011;DHT22;37038;50.182;8.624;2024-01-06T05:17:42;4.80;1.00
51011;DHT22;37038;50.182;8.624;2024-01-06T05:20:31;4.90;1.00
51011;DHT22;37038;50.182;8.624;2024-01-06T05:23:19;4.80;1.00
51011;DHT22;37038;50.182;8.624;2024-01-06T05:26:10;4.70;1.30
51011;DHT22;37038;50.182;8.624;2024-01-06T05:29:00;4.70;19.90
51011;DHT22;37038;50.182;8.624;2024-01-06T05:31:51;4.80;11.00
51011;DHT22;37038;50.182;8.624;2024-01-06T05:34:52;4.90;1.00
51011;DHT22;37038;50.182;8.624;2024-01-06T05:37:41;4.90;1.00
51011;DHT22;37038;50.182;8.624;2024-01-06T05:40:30;5.00;1.00
51011;DHT22;37038;50.182;8.624;2024-01-06T05:43:27;5.10;1.00
51011;DHT22;37038;50.182;8.624;2024-01-06T05:46:23;5.20;1.00
51011;DHT22;37038;50.182;8.624;2024-01-06T05:49:11;5.30;1.00
51011;DHT22;37038;50.182;8.624;2024-01-06T05:52:00;5.30;1.00
51011;DHT22;37038;50.182;8.624;2024-01-06T05:54:51;5.20;1.00
51011;DHT22;37038;50.182;8.624;2024-01-06T05:57:43;5.10;1.00
51011;DHT22;37038;50.182;8.624;2024-01-06T06:00:34;5.10;1.00
51011;DHT22;37038;50.182;8.624;2024-01-06T06:03:24;5.00;1.00
51011;DHT22;37038;50.182;8.624;2024-01-06T06:06:13;4.90;1.00
51011;DHT22;37038;50.182;8.624;2024-01-06T06:09:04;4.90;32.30
51011;DHT22;37038;50.182;8.624;2024-01-06T06:12:02;5.00;1.00
51011;DHT22;37038;50.182;8.624;2024-01-06T06:14:53;4.90;12.10
51011;DHT22;37038;50.182;8.624;2024-01-06T06:17:43;4.80;22.30
51011;DHT22;37038;50.182;8.624;2024-01-06T06:20:31;4.90;20.40
51011;DHT22;37038;50.182;8.624;2024-01-06T06:23:21;5.00;1.00
51011;DHT22;37038;50.182;8.624;2024-01-06T06:26:09;5.00;1.00
51011;DHT22;37038;50.182;8.624;2024-01-06T06:28:59;5.00;1.00
51011;DHT22;37038;50.182;8.624;2024-01-06T06:31:53;4.90;15.40
51011;DHT22;37038;50.182;8.624;2024-01-06T06:34:44;5.00;1.00
51011;DHT22;37038;50.182;8.624;2024-01-06T06:37:35;5.00;1.00
51011;DHT22;37038;50.182;8.624;2024-01-06T06:40:25;4.90;1.00
51011;DHT22;37038;50.182;8.624;2024-01-06T06:43:14;4.90;3.30
51011;DHT22;37038;50.182;8.624;2024-01-06T06:46:06;4.80;37.40
51011;DHT22;37038;50.182;8.624;2024-01-06T06:48:54;4.90;31.90
51011;DHT22;37038;50.182;8.624;2024-01-06T06:51:51;4.90;20.70
51011;DHT22;37038;50.182;8.624;2024-01-06T06:54:40;5.00;6.40
51011;DHT22;37038;50.182;8.624;2024-01-06T06:57:29;4.90;15.60
51011;DHT22;37038;50.182;8.624;2024-01-06T07:00:17;5.00;1.00
51011;DHT22;37038;50.182;8.624;2024-01-06T07:03:06;5.00;1.00
51011;DHT22;37038;50.182;8.624;2024-01-06T07:05:55;5.00;29.60
51011;DHT22;37038;50.182;8.624;2024-01-06T07:08:43;5.00;17.00
51011;DHT22;37038;50.182;8.624;2024-01-06T07:11:35;4.90;35.40
51011;DHT22;37038;50.182;8.624;2024-01-06T07:14:29;4.90;74.60
51011;DHT22;37038;50.182;8.624;2024-01-06T07:17:35;4.90;67.30
51011;DHT22;37038;50.182;8.624;2024-01-06T07:20:43;5.00;72.60
51011;DHT22;37038;50.182;8.624;2024-01-06T07:23:51;5.00;72.80
51011;DHT22;37038;50.182;8.624;2024-01-06T07:27:13;5.00;89.20
51011;DHT22;37038;50.182;8.624;2024-01-06T07:30:17;4.90;99.00
51011;DHT22;37038;50.182;8.624;2024-01-06T07:33:20;5.00;96.70
51011;DHT22;37038;50.182;8.624;2024-01-06T07:36:49;4.90;96.80
51011;DHT22;37038;50.182;8.624;2024-01-06T07:40:12;4.80;99.90
51011;DHT22;37038;50.182;8.624;2024-01-06T07:43:35;4.80;99.90
51011;DHT22;37038;50.182;8.624;2024-01-06T07:46:32;4.90;99.90
51011;DHT22;37038;50.182;8.624;2024-01-06T07:49:49;5.10;99.90
51011;DHT22;37038;50.182;8.624;2024-01-06T07:56:26;5.00;99.90
51011;DHT22;37038;50.182;8.624;2024-01-06T07:59:35;5.10;99.90
51011;DHT22;37038;50.182;8.624;2024-01-06T08:06:23;5.10;91.40
51011;DHT22;37038;50.182;8.624;2024-01-06T08:09:30;5.20;99.90
51011;DHT22;37038;50.182;8.624;2024-01-06T08:16:19;5.10;99.90
51011;DHT22;37038;50.182;8.624;2024-01-06T08:19:44;5.20;99.90
51011;DHT22;37038;50.182;8.624;2024-01-06T08:22:47;5.00;99.90
51011;DHT22;37038;50.182;8.624;2024-01-06T08:25:51;5.00;99.90
51011;DHT22;37038;50.182;8.624;2024-01-06T08:35:05;5.00;99.90
51011;DHT22;37038;50.182;8.624;2024-01-06T08:38:03;5.10;99.90
51011;DHT22;37038;50.182;8.624;2024-01-06T08:41:11;5.30;99.90
51011;DHT22;37038;50.182;8.624;2024-01-06T08:44:09;5.40;99.90
51011;DHT22;37038;50.182;8.624;2024-01-06T08:47:36;5.40;99.90
51011;DHT22;37038;50.182;8.624;2024-01-06T08:50:34;5.40;99.90
51011;DHT22;37038;50.182;8.624;2024-01-06T08:53:44;5.40;99.90
51011;DHT22;37038;50.182;8.624;2024-01-06T08:56:47;5.30;99.90
51011;DHT22;37038;50.182;8.624;2024-01-06T08:59:48;5.30;99.90
51011;DHT22;37038;50.182;8.624;2024-01-06T09:03:16;5.30;99.90
51011;DHT22;37038;50.182;8.624;2024-01-06T09:06:41;5.20;99.90
51011;DHT22;37038;50.182;8.624;2024-01-06T09:09:38;5.30;99.90
51011;DHT22;37038;50.182;8.624;2024-01-06T09:12:49;5.40;99.90
51011;DHT22;37038;50.182;8.624;2024-01-06T09:16:04;5.60;98.00
51011;DHT22;37038;50.182;8.624;2024-01-06T09:19:24;5.60;76.70
51011;DHT22;37038;50.182;8.624;2024-01-06T09:22:40;5.40;81.50
51011;DHT22;37038;50.182;8.624;2024-01-06T09:25:46;5.60;99.90
51011;DHT22;37038;50.182;8.624;2024-01-06T09:28:53;5.70;99.90
51011;DHT22;37038;50.182;8.624;2024-01-06T09:31:53;5.70;93.70
51011;DHT22;37038;50.182;8.624;2024-01-06T09:35:02;5.70;99.90
51011;DHT22;37038;50.182;8.624;2024-01-06T09:38:18;5.60;99.90
51011;DHT22;37038;50.182;8.624;2024-01-06T09:41:26;5.50;99.90
51011;DHT22;37038;50.182;8.624;2024-01-06T09:44:33;5.70;99.90
51011;DHT22;37038;50.182;8.624;2024-01-06T09:48:15;5.80;99.90
51011;DHT22;37038;50.182;8.624;2024-01-06T09:51:47;5.80;99.90
51011;DHT22;37038;50.182;8.624;2024-01-06T09:55:35;5.70;99.90
51011;DHT22;37038;50.182;8.624;2024-01-06T10:03:03;5.60;99.90
51011;DHT22;37038;50.182;8.624;2024-01-06T10:06:17;5.60;99.90
51011;DHT22;37038;50.182;8.624;2024-01-06T10:09:29;5.70;99.90
51011;DHT22;37038;50.182;8.624;2024-01-06T10:12:43;5.70;99.90
51011;DHT22;37038;50.182;8.624;2024-01-06T10:15:59;5.80;99.90
51011;DHT22;37038;50.182;8.624;2024-01-06T10:19:20;5.80;99.90
51011;DHT22;37038;50.182;8.624;2024-01-06T10:22:45;5.70;99.90
51011;DHT22;37038;50.182;8.624;2024-01-06T10:26:12;5.70;99.90
51011;DHT22;37038;50.182;8.624;2024-01-06T10:30:14;5.70;99.90
51011;DHT22;37038;50.182;8.624;2024-01-06T10:33:45;5.60;99.90
51011;DHT22;37038;50.182;8.624;2024-01-06T10:38:06;5.70;99.90
51011;DHT22;37038;50.182;8.624;2024-01-06T10:41:23;6.00;99.90
51011;DHT22;37038;50.182;8.624;2024-01-06T10:45:18;6.00;99.90
51011;DHT22;37038;50.182;8.624;2024-01-06T10:49:21;5.90;99.90
51011;DHT22;37038;50.182;8.624;2024-01-06T10:53:03;6.00;99.90
51011;DHT22;37038;50.182;8.624;2024-01-06T11:14:40;6.60;1.00
51011;DHT22;37038;50.182;8.624;2024-01-06T11:24:45;7.10;1.00
51011;DHT22;37038;50.182;8.624;2024-01-06T11:27:50;6.70;1.00
51011;DHT22;37038;50.182;8.624;2024-01-06T11:30:46;6.40;2.80
51011;DHT22;37038;50.182;8.624;2024-01-06T11:33:46;6.60;74.90
51011;DHT22;37038;50.182;8.624;2024-01-06T11:36:50;7.40;1.00
51011;DHT22;37038;50.182;8.624;2024-01-06T11:39:48;7.30;1.00
51011;DHT22;37038;50.182;8.624;2024-01-06T11:42:46;7.00;1.00
51011;DHT22;37038;50.182;8.624;2024-01-06T11:46:13;7.10;1.00
51011;DHT22;37038;50.182;8.624;2024-01-06T11:50:20;7.10;1.00
51011;DHT22;37038;50.182;8.624;2024-01-06T11:53:40;6.90;1.00
51011;DHT22;37038;50.182;8.624;2024-01-06T11:56:43;7.20;1.00
51011;DHT22;37038;50.182;8.624;2024-01-06T11:59:43;7.30;1.00
51011;DHT22;37038;50.182;8.624;2024-01-06T12:03:15;7.00;1.00
51011;DHT22;37038;50.182;8.624;2024-01-06T12:06:23;7.30;1.00
51011;DHT22;37038;50.182;8.624;2024-01-06T12:09:40;7.60;1.00
51011;DHT22;37038;50.182;8.624;2024-01-06T12:13:08;7.90;1.00
51011;DHT22;37038;50.182;8.624;2024-01-06T12:16:37;8.00;1.00
51011;DHT22;37038;50.182;8.624;2024-01-06T12:20:04;8.00;99.90
51011;DHT22;37038;50.182;8.624;2024-01-06T12:23:11;7.90;1.00
51011;DHT22;37038;50.182;8.624;2024-01-06T12:26:22;7.80;99.90
51011;DHT22;37038;50.182;8.624;2024-01-06T12:29:44;7.40;1.00
51011;DHT22;37038;50.182;8.624;2024-01-06T12:32:55;7.70;1.00
51011;DHT22;37038;50.182;8.624;2024-01-06T12:35:57;7.90;99.90
51011;DHT22;37038;50.182;8.624;2024-01-06T12:39:12;8.00;1.00
51011;DHT22;37038;50.182;8.624;2024-01-06T12:42:33;8.20;99.90
51011;DHT22;37038;50.182;8.624;2024-01-06T12:54:58;8.20;99.90
51011;DHT22;37038;50.182;8.624;2024-01-06T13:03:36;8.40;99.90
51011;DHT22;37038;50.182;8.624;2024-01-06T13:11:53;8.40;1.00
51011;DHT22;37038;50.182;8.624;2024-01-06T13:19:24;8.40;99.90
51011;DHT22;37038;50.182;8.624;2024-01-06T13:23:32;8.80;99.90
51011;DHT22;37038;50.182;8.624;2024-01-06T13:38:48;9.10;77.50
51011;DHT22;37038;50.182;8.624;2024-01-06T13:48:45;7.80;99.90
51011;DHT22;37038;50.182;8.624;2024-01-06T13:52:26;8.60;99.90
51011;DHT22;37038;50.182;8.624;2024-01-06T13:55:33;8.90;1.00
51011;DHT22;37038;50.182;8.624;2024-01-06T13:59:34;9.30;99.90
51011;DHT22;37038;50.182;8.624;2024-01-06T14:03:21;9.40;99.90
51011;DHT22;37038;50.182;8.624;2024-01-06T14:11:16;8.80;99.90
51011;DHT22;37038;50.182;8.624;2024-01-06T14:17:58;8.00;99.90
51011;DHT22;37038;50.182;8.624;2024-01-06T14:21:24;7.70;1.00
51011;DHT22;37038;50.182;8.624;2024-01-06T14:30:14;7.00;1.00
51011;DHT22;37038;50.182;8.624;2024-01-06T14:34:02;6.80;1.00
51011;DHT22;37038;50.182;8.624;2024-01-06T14:37:34;6.70;99.90
51011;DHT22;37038;50.182;8.624;2024-01-06T14:41:42;6.50;1.00
51011;DHT22;37038;50.182;8.624;2024-01-06T14:45:56;6.50;1.00
51011;DHT22;37038;50.182;8.624;2024-01-06T14:57:59;6.60;1.00
51011;DHT22;37038;50.182;8.624;2024-01-06T15:06:30;6.60;1.00
51011;DHT22;37038;50.182;8.624;2024-01-06T15:10:28;6.60;99.90
51011;DHT22;37038;50.182;8.624;2024-01-06T15:16:44;6.50;99.90
51011;DHT22;37038;50.182;8.624;2024-01-06T15:20:40;6.40;99.90
51011;DHT22;37038;50.182;8.624;2024-01-06T15:28:22;6.40;99.90
51011;DHT22;37038;50.182;8.624;2024-01-06T15:37:14;6.10;99.90
51011;DHT22;37038;50.182;8.624;2024-01-06T15:41:19;6.00;99.90
51011;DHT22;37038;50.182;8.624;2024-01-06T15:45:15;6.10;99.90
51011;DHT22;37038;50.182;8.624;2024-01-06T15:49:03;6.20;99.90
51011;DHT22;37038;50.182;8.624;2024-01-06T15:52:36;6.20;99.90
51011;DHT22;37038;50.182;8.624;2024-01-06T15:55:40;6.30;99.90
51011;DHT22;37038;50.182;8.624;2024-01-06T15:58:31;6.20;99.90
51011;DHT22;37038;50.182;8.624;2024-01-06T16:01:20;6.20;99.90
51011;DHT22;37038;50.182;8.624;2024-01-06T16:04:08;6.10;99.90
51011;DHT22;37038;50.182;8.624;2024-01-06T16:06:57;6.20;99.90
51011;DHT22;37038;50.182;8.624;2024-01-06T16:09:51;6.10;99.90
51011;DHT22;37038;50.182;8.624;2024-01-06T16:12:40;6.20;99.90
51011;DHT22;37038;50.182;8.624;2024-01-06T16:15:29;6.30;99.90
51011;DHT22;37038;50.182;8.624;2024-01-06T16:18:18;6.30;99.90
51011;DHT22;37038;50.182;8.624;2024-01-06T16:21:10;6.30;99.90
51011;DHT22;37038;50.182;8.624;2024-01-06T16:23:59;6.30;99.90
51011;DHT22;37038;50.182;8.624;2024-01-06T16:26:51;6.40;99.90
51011;DHT22;37038;50.182;8.624;2024-01-06T16:29:41;6.40;99.90
51011;DHT22;37038;50.182;8.624;2024-01-06T16:32:29;6.30;93.10
51011;DHT22;37038;50.182;8.624;2024-01-06T16:35:20;6.10;99.90
51011;DHT22;37038;50.182;8.624;2024-01-06T16:38:09;6.20;99.90
51011;DHT22;37038;50.182;8.624;2024-01-06T16:40:57;6.30;1.00
51011;DHT22;37038;50.182;8.624;2024-01-06T16:43:46;6.40;1.00
51011;DHT22;37038;50.182;8.624;2024-01-06T16:46:38;6.40;1.00
51011;DHT22;37038;50.182;8.624;2024-01-06T16:49:26;6.50;1.00
51011;DHT22;37038;50.182;8.624;2024-01-06T16:52:17;6.50;1.00
51011;DHT22;37038;50.182;8.624;2024-01-06T16:55:06;6.80;1.00
51011;DHT22;37038;50.182;8.624;2024-01-06T16:58:04;6.70;1.00
51011;DHT22;37038;50.182;8.624;2024-01-06T17:00:55;6.90;1.00
51011;DHT22;37038;50.182;8.624;2024-01-06T17:03:46;6.90;99.90
51011;DHT22;37038;50.182;8.624;2024-01-06T17:06:45;6.80;99.90
51011;DHT22;37038;50.182;8.624;2024-01-06T17:09:48;6.70;99.90
51011;DHT22;37038;50.182;8.624;2024-01-06T17:12:41;6.80;1.00
51011;DHT22;37038;50.182;8.624;2024-01-06T17:15:30;6.80;1.00
51011;DHT22;37038;50.182;8.624;2024-01-06T17:18:18;6.70;99.90
51011;DHT22;37038;50.182;8.624;2024-01-06T17:21:10;6.50;1.00
51011;DHT22;37038;50.182;8.624;2024-01-06T17:24:03;6.30;1.00
51011;DHT22;37038;50.182;8.624;2024-01-06T17:26:53;6.30;4.00
51011;DHT22;37038;50.182;8.624;2024-01-06T17:29:44;6.30;99.90
51011;DHT22;37038;50.182;8.624;2024-01-06T17:32:36;6.10;99.90
51011;DHT22;37038;50.182;8.624;2024-01-06T17:35:27;6.10;99.90
51011;DHT22;37038;50.182;8.624;2024-01-06T17:38:17;6.10;99.90
51011;DHT22;37038;50.182;8.624;2024-01-06T17:41:08;6.00;99.90
51011;DHT22;37038;50.182;8.624;2024-01-06T17:43:56;6.10;99.90
51011;DHT22;37038;50.182;8.624;2024-01-06T17:46:55;6.10;99.90
51011;DHT22;37038;50.182;8.624;2024-01-06T17:49:50;6.00;1.00
51011;DHT22;37038;50.182;8.624;2024-01-06T17:52:40;6.00;1.00
51011;DHT22;37038;50.182;8.624;2024-01-06T17:55:42;6.00;1.00
51011;DHT22;37038;50.182;8.624;2024-01-06T17:58:34;6.10;1.00
51011;DHT22;37038;50.182;8.624;2024-01-06T18:01:27;6.20;99.90
51011;DHT22;37038;50.182;8.624;2024-01-06T18:04:20;6.20;1.00
51011;DHT22;37038;50.182;8.624;2024-01-06T18:07:16;6.30;99.90
51011;DHT22;37038;50.182;8.624;2024-01-06T18:10:06;5.90;1.00
51011;DHT22;37038;50.182;8.624;2024-01-06T18:13:01;5.80;1.00
51011;DHT22;37038;50.182;8.624;2024-01-06T18:15:53;5.90;1.00
51011;DHT22;37038;50.182;8.624;2024-01-06T18:18:42;5.90;1.00
51011;DHT22;37038;50.182;8.624;2024-01-06T18:21:30;6.00;1.00
51011;DHT22;37038;50.182;8.624;2024-01-06T18:24:37;5.90;1.00
51011;DHT22;37038;50.182;8.624;2024-01-06T18:27:32;5.90;1.00
51011;DHT22;37038;50.182;8.624;2024-01-06T18:30:24;5.80;1.00
51011;DHT22;37038;50.182;8.624;2024-01-06T18:33:15;5.80;1.00
51011;DHT22;37038;50.182;8.624;2024-01-06T18:36:07;5.70;1.00
51011;DHT22;37038;50.182;8.624;2024-01-06T18:38:59;5.70;1.00
51011;DHT22;37038;50.182;8.624;2024-01-06T18:41:52;5.80;1.00
51011;DHT22;37038;50.182;8.624;2024-01-06T18:44:44;5.60;1.00
51011;DHT22;37038;50.182;8.624;2024-01-06T18:47:35;5.60;1.00
51011;DHT22;37038;50.182;8.624;2024-01-06T18:50:29;5.60;1.00
51011;DHT22;37038;50.182;8.624;2024-01-06T18:53:22;5.70;1.00
51011;DHT22;37038;50.182;8.624;2024-01-06T18:56:13;5.80;1.00
51011;DHT22;37038;50.182;8.624;2024-01-06T18:59:01;5.70;1.00
51011;DHT22;37038;50.182;8.624;2024-01-06T19:01:50;5.80;1.00
51011;DHT22;37038;50.182;8.624;2024-01-06T19:04:43;5.90;1.00
51011;DHT22;37038;50.182;8.624;2024-01-06T19:07:35;5.80;1.00
51011;DHT22;37038;50.182;8.624;2024-01-06T19:10:24;5.70;1.00
51011;DHT22;37038;50.182;8.624;2024-01-06T19:13:12;5.80;1.00
51011;DHT22;37038;50.182;8.624;2024-01-06T19:16:01;5.70;1.00
51011;DHT22;37038;50.182;8.624;2024-01-06T19:18:58;5.60;1.00
51011;DHT22;37038;50.182;8.624;2024-01-06T19:21:54;5.70;1.00
51011;DHT22;37038;50.182;8.624;2024-01-06T19:24:50;5.70;1.00
51011;DHT22;37038;50.182;8.624;2024-01-06T19:27:40;5.70;1.00
51011;DHT22;37038;50.182;8.624;2024-01-06T19:30:32;5.70;1.00
51011;DHT22;37038;50.182;8.624;2024-01-06T19:33:22;5.60;1.00
51011;DHT22;37038;50.182;8.624;2024-01-06T19:36:14;5.60;1.00
51011;DHT22;37038;50.182;8.624;2024-01-06T19:39:03;5.70;1.00
51011;DHT22;37038;50.182;8.624;2024-01-06T19:41:55;5.70;1.00
51011;DHT22;37038;50.182;8.624;2024-01-06T19:44:51;5.60;1.00
51011;DHT22;37038;50.182;8.624;2024-01-06T19:47:41;5.60;1.00
51011;DHT22;37038;50.182;8.624;2024-01-06T19:50:32;5.70;1.00
51011;DHT22;37038;50.182;8.624;2024-01-06T19:53:20;5.70;1.00
51011;DHT22;37038;50.182;8.624;2024-01-06T19:56:13;5.80;1.00
51011;DHT22;37038;50.182;8.624;2024-01-06T19:59:08;5.80;1.00
51011;DHT22;37038;50.182;8.624;2024-01-06T20:02:01;5.80;1.00
51011;DHT22;37038;50.182;8.624;2024-01-06T20:04:49;5.80;1.00
51011;DHT22;37038;50.182;8.624;2024-01-06T20:07:37;5.60;1.00
51011;DHT22;37038;50.182;8.624;2024-01-06T20:10:26;5.70;1.00
51011;DHT22;37038;50.182;8.624;2024-01-06T20:13:14;5.60;1.00
51011;DHT22;37038;50.182;8.624;2024-01-06T20:16:07;5.60;1.00
51011;DHT22;37038;50.182;8.624;2024-01-06T20:18:58;5.50;1.00
51011;DHT22;37038;50.182;8.624;2024-01-06T20:21:52;5.60;1.00
51011;DHT22;37038;50.182;8.624;2024-01-06T20:24:42;5.60;1.00
51011;DHT22;37038;50.182;8.624;2024-01-06T20:27:31;5.50;1.00
51011;DHT22;37038;50.182;8.624;2024-01-06T20:30:34;5.60;1.00
51011;DHT22;37038;50.182;8.624;2024-01-06T20:33:30;5.50;1.00
51011;DHT22;37038;50.182;8.624;2024-01-06T20:36:21;5.50;1.00
51011;DHT22;37038;50.182;8.624;2024-01-06T20:39:10;5.40;1.00
51011;DHT22;37038;50.182;8.624;2024-01-06T20:41:59;5.50;1.00
51011;DHT22;37038;50.182;8.624;2024-01-06T20:44:54;5.60;1.00
51011;DHT22;37038;50.182;8.624;2024-01-06T20:47:43;5.50;1.00
51011;DHT22;37038;50.182;8.624;2024-01-06T20:50:31;5.50;1.00
51011;DHT22;37038;50.182;8.624;2024-01-06T20:53:19;5.50;1.00
51011;DHT22;37038;50.182;8.624;2024-01-06T20:56:08;5.50;1.00
51011;DHT22;37038;50.182;8.624;2024-01-06T20:58:56;5.40;1.00
51011;DHT22;37038;50.182;8.624;2024-01-06T21:01:44;5.40;1.00
51011;DHT22;37038;50.182;8.624;2024-01-06T21:04:35;5.50;1.00
51011;DHT22;37038;50.182;8.624;2024-01-06T21:07:25;5.50;1.00
51011;DHT22;37038;50.182;8.624;2024-01-06T21:10:14;5.60;1.00
51011;DHT22;37038;50.182;8.624;2024-01-06T21:13:03;5.40;1.00
51011;DHT22;37038;50.182;8.624;2024-01-06T21:15:52;5.40;1.00
51011;DHT22;37038;50.182;8.624;2024-01-06T21:18:40;5.50;1.00
51011;DHT22;37038;50.182;8.624;2024-01-06T21:21:29;5.40;1.00
51011;DHT22;37038;50.182;8.624;2024-01-06T21:24:19;5.40;1.00
51011;DHT22;37038;50.182;8.624;2024-01-06T21:27:08;5.40;1.00
51011;DHT22;37038;50.182;8.624;2024-01-06T21:29:56;5.40;1.00